createdAt,value
2024-05-09T00:00:22.529Z,15.60
2024-05-09T00:00:50.795Z,15.70
2024-05-09T00:01:23.104Z,15.40
2024-05-09T00:01:55.499Z,15.50
2024-05-09T00:02:27.888Z,15.60
2024-05-09T00:03:00.350Z,15.00
2024-05-09T00:03:32.889Z,13.40
2024-05-09T00:04:05.438Z,14.00
2024-05-09T00:04:37.852Z,14.70
2024-05-09T00:05:10.382Z,15.10
2024-05-09T00:05:43.128Z,15.50
2024-05-09T00:06:15.283Z,15.50
2024-05-09T00:06:47.648Z,15.40
2024-05-09T00:07:20.067Z,14.50
2024-05-09T00:07:52.606Z,14.10
2024-05-09T00:08:25.060Z,13.60
2024-05-09T00:08:57.478Z,13.10
2024-05-09T00:09:29.903Z,13.90
2024-05-09T00:10:03.190Z,15.50
2024-05-09T00:10:37.587Z,16.00
2024-05-09T00:11:07.298Z,14.30
2024-05-09T00:11:39.784Z,14.00
2024-05-09T00:12:12.283Z,14.50
2024-05-09T00:12:44.602Z,15.60
2024-05-09T00:13:17.029Z,16.30
2024-05-09T00:13:49.525Z,15.10
2024-05-09T00:14:22.086Z,13.80
2024-05-09T00:14:54.455Z,13.50
2024-05-09T00:15:26.872Z,14.20
2024-05-09T00:15:59.293Z,15.30
2024-05-09T00:16:31.723Z,15.20
2024-05-09T00:17:04.153Z,14.70
2024-05-09T00:17:36.739Z,14.20
2024-05-09T00:18:09.217Z,14.40
2024-05-09T00:18:41.530Z,13.90
2024-05-09T00:19:14.066Z,14.00
2024-05-09T00:19:46.414Z,14.00
2024-05-09T00:20:24.421Z,14.20
2024-05-09T00:20:51.418Z,14.90
2024-05-09T00:21:23.716Z,16.30
2024-05-09T00:21:56.188Z,15.80
2024-05-09T00:22:28.651Z,15.80
2024-05-09T00:23:01.268Z,16.30
2024-05-09T00:23:33.560Z,14.40
2024-05-09T00:24:06.037Z,13.70
2024-05-09T00:24:38.495Z,15.30
2024-05-09T00:25:11.083Z,16.40
2024-05-09T00:25:43.859Z,14.50
2024-05-09T00:26:16.021Z,14.00
2024-05-09T00:26:48.384Z,14.90
2024-05-09T00:27:20.946Z,13.70
2024-05-09T00:27:53.376Z,12.50
2024-05-09T00:28:25.813Z,14.10
2024-05-09T00:28:58.244Z,14.70
2024-05-09T00:29:30.776Z,14.60
2024-05-09T00:30:04.194Z,14.80
2024-05-09T00:30:37.138Z,13.90
2024-05-09T00:31:08.155Z,14.30
2024-05-09T00:31:40.638Z,15.20
2024-05-09T00:32:13.215Z,14.50
2024-05-09T00:32:45.656Z,15.40
2024-05-09T00:33:18.282Z,15.00
2024-05-09T00:33:50.689Z,15.10
2024-05-09T00:34:23.002Z,15.30
2024-05-09T00:34:55.437Z,15.30
2024-05-09T00:35:27.941Z,15.20
2024-05-09T00:36:00.388Z,14.00
2024-05-09T00:36:32.852Z,14.60
2024-05-09T00:37:05.335Z,15.40
2024-05-09T00:37:37.763Z,14.20
2024-05-09T00:38:10.215Z,13.70
2024-05-09T00:38:42.708Z,14.20
2024-05-09T00:39:15.157Z,14.40
2024-05-09T00:39:47.625Z,14.20
2024-05-09T00:40:30.678Z,14.30
2024-05-09T00:40:52.499Z,15.40
2024-05-09T00:41:24.919Z,16.20
2024-05-09T00:41:57.321Z,14.70
2024-05-09T00:42:29.748Z,13.90
2024-05-09T00:43:02.180Z,15.60
2024-05-09T00:43:34.584Z,15.60
2024-05-09T00:44:07.094Z,15.50
2024-05-09T00:44:39.392Z,15.60
2024-05-09T00:45:11.905Z,15.70
2024-05-09T00:45:44.501Z,15.30
2024-05-09T00:46:16.859Z,14.30
2024-05-09T00:46:49.382Z,14.20
2024-05-09T00:47:21.960Z,14.20
2024-05-09T00:47:54.550Z,14.80
2024-05-09T00:48:27.066Z,14.70
2024-05-09T00:48:59.370Z,15.40
2024-05-09T00:49:31.880Z,14.70
2024-05-09T00:50:05.591Z,14.50
2024-05-09T00:50:37.816Z,15.70
2024-05-09T00:51:09.126Z,16.50
2024-05-09T00:51:41.560Z,16.60
2024-05-09T00:52:14.059Z,16.20
2024-05-09T00:52:46.643Z,15.90
2024-05-09T00:53:19.246Z,15.10
2024-05-09T00:53:51.524Z,14.30
2024-05-09T00:54:24.011Z,14.60
2024-05-09T00:54:56.499Z,14.90
2024-05-09T00:55:28.989Z,14.60
2024-05-09T00:56:01.423Z,15.90
2024-05-09T00:56:33.873Z,15.10
2024-05-09T00:57:06.385Z,14.30
2024-05-09T00:57:38.848Z,15.60
2024-05-09T00:58:11.318Z,15.20
2024-05-09T00:58:43.783Z,16.70
2024-05-09T00:59:16.218Z,16.60
2024-05-09T00:59:48.632Z,15.80
2024-05-09T01:00:27.283Z,15.90
2024-05-09T01:00:53.580Z,15.60
2024-05-09T01:01:25.984Z,16.20
2024-05-09T01:01:58.447Z,14.90
2024-05-09T01:02:30.854Z,15.30
2024-05-09T01:03:03.578Z,15.90
2024-05-09T01:03:35.897Z,16.30
2024-05-09T01:04:08.235Z,15.70
2024-05-09T01:04:40.625Z,15.70
2024-05-09T01:05:13.235Z,16.70
2024-05-09T01:05:45.552Z,16.40
2024-05-09T01:06:17.939Z,16.20
2024-05-09T01:06:50.374Z,15.80
2024-05-09T01:07:22.787Z,16.30
2024-05-09T01:07:55.288Z,16.10
2024-05-09T01:08:27.743Z,15.30
2024-05-09T01:09:00.112Z,14.60
2024-05-09T01:09:32.600Z,15.00
2024-05-09T01:10:37.570Z,14.20
2024-05-09T01:11:10.058Z,15.70
2024-05-09T01:11:42.571Z,16.60
2024-05-09T01:12:15.170Z,15.20
2024-05-09T01:12:47.394Z,14.50
2024-05-09T01:13:19.892Z,14.30
2024-05-09T01:13:52.406Z,14.00
2024-05-09T01:14:24.907Z,15.50
2024-05-09T01:14:57.360Z,15.80
2024-05-09T01:15:29.793Z,15.40
2024-05-09T01:16:02.229Z,16.00
2024-05-09T01:16:34.611Z,16.50
2024-05-09T01:17:07.051Z,16.20
2024-05-09T01:17:39.590Z,15.20
2024-05-09T01:18:13.124Z,15.90
2024-05-09T01:18:44.330Z,17.10
2024-05-09T01:19:16.912Z,16.20
2024-05-09T01:19:49.239Z,16.50
2024-05-09T01:20:31.754Z,16.40
2024-05-09T01:20:54.115Z,16.40
2024-05-09T01:21:26.531Z,15.20
2024-05-09T01:21:58.912Z,14.70
2024-05-09T01:22:31.328Z,16.50
2024-05-09T01:23:03.825Z,18.30
2024-05-09T01:23:36.383Z,16.40
2024-05-09T01:24:08.714Z,15.10
2024-05-09T01:24:41.179Z,16.20
2024-05-09T01:25:13.607Z,17.00
2024-05-09T01:25:46.686Z,16.70
2024-05-09T01:26:18.536Z,15.60
2024-05-09T01:26:51.139Z,14.50
2024-05-09T01:27:23.643Z,15.00
2024-05-09T01:27:56.140Z,16.00
2024-05-09T01:28:28.652Z,16.20
2024-05-09T01:29:01.275Z,16.20
2024-05-09T01:29:33.688Z,16.30
2024-05-09T01:30:09.249Z,16.50
2024-05-09T01:30:38.811Z,16.00
2024-05-09T01:31:10.889Z,15.90
2024-05-09T01:31:43.446Z,16.30
2024-05-09T01:32:15.878Z,17.00
2024-05-09T01:32:48.515Z,17.40
2024-05-09T01:33:20.979Z,16.90
2024-05-09T01:33:53.404Z,16.40
2024-05-09T01:34:25.717Z,15.70
2024-05-09T01:34:58.174Z,14.90
2024-05-09T01:35:30.724Z,14.60
2024-05-09T01:36:03.124Z,15.20
2024-05-09T01:36:35.596Z,14.90
2024-05-09T01:37:08.094Z,14.30
2024-05-09T01:37:40.567Z,16.20
2024-05-09T01:38:13.661Z,16.00
2024-05-09T01:38:45.455Z,15.10
2024-05-09T01:39:17.866Z,15.20
2024-05-09T01:39:50.307Z,17.10
2024-05-09T01:40:29.119Z,16.30
2024-05-09T01:40:55.255Z,15.70
2024-05-09T01:41:27.654Z,16.60
2024-05-09T01:42:00.081Z,16.20
2024-05-09T01:42:32.519Z,16.30
2024-05-09T01:43:05.017Z,16.20
2024-05-09T01:43:37.497Z,15.80
2024-05-09T01:44:10.107Z,15.30
2024-05-09T01:44:42.457Z,15.30
2024-05-09T01:45:14.896Z,16.20
2024-05-09T01:45:47.414Z,16.50
2024-05-09T01:46:19.838Z,16.40
2024-05-09T01:46:52.299Z,15.30
2024-05-09T01:47:24.896Z,15.00
2024-05-09T01:47:57.384Z,15.00
2024-05-09T01:48:29.834Z,15.00
2024-05-09T01:49:02.176Z,15.10
2024-05-09T01:49:34.557Z,16.40
2024-05-09T01:50:09.104Z,15.70
2024-05-09T01:50:42.135Z,16.50
2024-05-09T01:51:12.054Z,17.20
2024-05-09T01:51:44.276Z,15.30
2024-05-09T01:52:16.698Z,15.10
2024-05-09T01:52:49.208Z,16.30
2024-05-09T01:53:21.821Z,17.20
2024-05-09T01:53:54.077Z,16.00
2024-05-09T01:54:26.483Z,15.90
2024-05-09T01:55:00.710Z,16.40
2024-05-09T01:55:31.428Z,16.80
2024-05-09T01:56:03.954Z,17.90
2024-05-09T01:56:36.426Z,17.60
2024-05-09T01:57:08.884Z,17.10
2024-05-09T01:57:41.384Z,16.90
2024-05-09T01:58:13.802Z,17.80
2024-05-09T01:58:46.260Z,18.10
2024-05-09T01:59:18.727Z,19.50
2024-05-09T01:59:51.173Z,19.10
2024-05-09T02:00:33.722Z,17.90
2024-05-09T02:00:56.049Z,17.90
2024-05-09T02:01:28.537Z,17.10
2024-05-09T02:02:01.246Z,16.70
2024-05-09T02:02:33.490Z,17.80
2024-05-09T02:03:06.037Z,16.60
2024-05-09T02:03:38.526Z,17.20
2024-05-09T02:04:11.104Z,17.40
2024-05-09T02:04:43.486Z,17.00
2024-05-09T02:05:15.872Z,17.10
2024-05-09T02:05:48.488Z,15.90
2024-05-09T02:06:20.498Z,14.50
2024-05-09T02:06:53.004Z,15.70
2024-05-09T02:07:25.511Z,16.50
2024-05-09T02:07:58.005Z,16.10
2024-05-09T02:08:30.527Z,16.80
2024-05-09T02:09:02.857Z,16.80
2024-05-09T02:09:35.283Z,16.50
2024-05-09T02:10:13.772Z,16.20
2024-05-09T02:10:40.116Z,16.30
2024-05-09T02:11:12.699Z,17.00
2024-05-09T02:11:44.985Z,16.80
2024-05-09T02:12:17.659Z,16.10
2024-05-09T02:12:49.912Z,17.70
2024-05-09T02:13:22.400Z,17.30
2024-05-09T02:13:54.859Z,17.20
2024-05-09T02:14:27.410Z,17.60
2024-05-09T02:14:59.653Z,16.10
2024-05-09T02:15:32.053Z,16.80
2024-05-09T02:16:04.554Z,17.40
2024-05-09T02:16:37.031Z,16.50
2024-05-09T02:17:09.539Z,16.00
2024-05-09T02:17:42.232Z,16.90
2024-05-09T02:18:14.597Z,17.40
2024-05-09T02:18:47.155Z,16.80
2024-05-09T02:19:19.535Z,17.10
2024-05-09T02:19:51.972Z,17.20
2024-05-09T02:20:33.088Z,18.20
2024-05-09T02:20:56.934Z,19.90
2024-05-09T02:21:29.407Z,17.50
2024-05-09T02:22:01.831Z,15.70
2024-05-09T02:22:34.237Z,15.80
2024-05-09T02:23:07.215Z,15.90
2024-05-09T02:23:39.236Z,16.40
2024-05-09T02:24:11.677Z,16.60
2024-05-09T02:24:44.168Z,15.40
2024-05-09T02:25:16.649Z,16.00
2024-05-09T02:25:49.160Z,16.30
2024-05-09T02:26:21.664Z,16.40
2024-05-09T02:26:54.097Z,16.00
2024-05-09T02:27:26.623Z,17.90
2024-05-09T02:27:59.243Z,18.00
2024-05-09T02:28:31.566Z,16.80
2024-05-09T02:29:04.078Z,16.10
2024-05-09T02:29:36.488Z,17.00
2024-05-09T02:30:18.490Z,17.50
2024-05-09T02:30:42.451Z,17.30
2024-05-09T02:31:13.836Z,16.30
2024-05-09T02:31:46.398Z,17.70
2024-05-09T02:32:18.892Z,18.80
2024-05-09T02:32:51.443Z,18.20
2024-05-09T02:33:23.850Z,16.10
2024-05-09T02:33:56.405Z,16.60
2024-05-09T02:34:28.677Z,16.30
2024-05-09T02:35:01.249Z,16.90
2024-05-09T02:35:33.812Z,17.20
2024-05-09T02:36:06.068Z,17.20
2024-05-09T02:36:38.471Z,18.10
2024-05-09T02:37:10.896Z,17.50
2024-05-09T02:37:43.330Z,18.30
2024-05-09T02:38:15.800Z,17.60
2024-05-09T02:38:48.227Z,15.40
2024-05-09T02:39:20.724Z,16.40
2024-05-09T02:39:53.238Z,18.40
2024-05-09T02:40:33.556Z,17.10
2024-05-09T02:40:58.248Z,15.50
2024-05-09T02:41:30.656Z,16.70
2024-05-09T02:42:03.051Z,17.10
2024-05-09T02:42:35.462Z,16.90
2024-05-09T02:43:08.728Z,17.00
2024-05-09T02:43:40.471Z,16.20
2024-05-09T02:44:13.076Z,16.60
2024-05-09T02:44:45.311Z,17.60
2024-05-09T02:45:17.722Z,18.60
2024-05-09T02:45:50.175Z,18.20
2024-05-09T02:46:22.675Z,16.80
2024-05-09T02:46:55.125Z,18.60
2024-05-09T02:47:27.681Z,18.40
2024-05-09T02:48:00.532Z,18.40
2024-05-09T02:48:32.608Z,18.80
2024-05-09T02:49:05.104Z,17.50
2024-05-09T02:49:37.683Z,16.80
2024-05-09T02:50:13.282Z,16.00
2024-05-09T02:50:42.603Z,16.30
2024-05-09T02:51:15.010Z,16.50
2024-05-09T02:51:47.421Z,15.00
2024-05-09T02:52:19.897Z,15.60
2024-05-09T02:52:52.379Z,17.30
2024-05-09T02:53:24.922Z,18.10
2024-05-09T02:53:57.377Z,18.80
2024-05-09T02:54:29.868Z,18.00
2024-05-09T02:55:02.367Z,18.80
2024-05-09T02:55:34.872Z,17.60
2024-05-09T02:56:07.495Z,16.40
2024-05-09T02:56:39.927Z,17.40
2024-05-09T02:57:12.388Z,17.10
2024-05-09T02:57:44.858Z,16.30
2024-05-09T02:58:17.277Z,17.00
2024-05-09T02:58:49.808Z,17.10
2024-05-09T02:59:22.472Z,16.10
2024-05-09T02:59:54.679Z,17.50
2024-05-09T03:00:35.102Z,18.50
2024-05-09T03:00:59.662Z,17.90
2024-05-09T03:01:32.137Z,17.70
2024-05-09T03:02:04.680Z,16.70
2024-05-09T03:02:37.126Z,16.10
2024-05-09T03:03:11.258Z,16.40
2024-05-09T03:03:42.219Z,16.20
2024-05-09T03:04:14.540Z,17.90
2024-05-09T03:04:46.967Z,18.10
2024-05-09T03:05:19.533Z,16.80
2024-05-09T03:05:51.934Z,16.70
2024-05-09T03:06:24.387Z,18.00
2024-05-09T03:06:56.865Z,17.60
2024-05-09T03:07:29.317Z,18.00
2024-05-09T03:08:01.843Z,18.50
2024-05-09T03:08:34.315Z,18.30
2024-05-09T03:09:06.567Z,17.00
2024-05-09T03:09:38.969Z,16.30
2024-05-09T03:10:18.352Z,17.60
2024-05-09T03:10:44.005Z,17.80
2024-05-09T03:11:16.456Z,17.40
2024-05-09T03:11:48.861Z,16.80
2024-05-09T03:12:21.256Z,15.30
2024-05-09T03:12:53.706Z,16.40
2024-05-09T03:13:26.132Z,16.70
2024-05-09T03:13:58.594Z,16.90
2024-05-09T03:14:31.052Z,17.30
2024-05-09T03:15:03.402Z,16.50
2024-05-09T03:15:35.913Z,18.10
2024-05-09T03:16:08.321Z,17.20
2024-05-09T03:16:40.763Z,16.90
2024-05-09T03:17:13.259Z,16.70
2024-05-09T03:17:45.990Z,16.90
2024-05-09T03:18:18.274Z,17.90
2024-05-09T03:18:50.807Z,18.30
2024-05-09T03:19:23.253Z,18.40
2024-05-09T03:19:55.605Z,18.10
2024-05-09T03:20:33.359Z,16.20
2024-05-09T03:21:00.616Z,16.60
2024-05-09T03:21:32.886Z,18.10
2024-05-09T03:22:05.331Z,18.60
2024-05-09T03:22:37.768Z,17.60
2024-05-09T03:23:10.540Z,16.40
2024-05-09T03:23:42.797Z,17.10
2024-05-09T03:24:15.151Z,17.80
2024-05-09T03:24:47.648Z,16.80
2024-05-09T03:25:20.117Z,17.00
2024-05-09T03:25:52.642Z,17.70
2024-05-09T03:26:25.120Z,17.30
2024-05-09T03:26:57.430Z,17.30
2024-05-09T03:27:29.916Z,17.30
2024-05-09T03:28:02.464Z,18.40
2024-05-09T03:28:34.865Z,17.60
2024-05-09T03:29:07.324Z,15.50
2024-05-09T03:29:39.769Z,16.00
2024-05-09T03:30:44.583Z,17.30
2024-05-09T03:31:16.947Z,18.90
2024-05-09T03:31:49.538Z,18.90
2024-05-09T03:32:22.042Z,17.10
2024-05-09T03:32:54.596Z,17.30
2024-05-09T03:33:27.189Z,17.30
2024-05-09T03:33:59.540Z,18.20
2024-05-09T03:34:31.977Z,17.30
2024-05-09T03:35:04.266Z,15.50
2024-05-09T03:35:36.707Z,16.60
2024-05-09T03:36:11.203Z,18.10
2024-05-09T03:36:41.478Z,17.60
2024-05-09T03:37:13.896Z,17.80
2024-05-09T03:37:46.337Z,16.40
2024-05-09T03:38:18.828Z,16.20
2024-05-09T03:38:51.307Z,16.20
2024-05-09T03:39:23.778Z,17.00
2024-05-09T03:39:56.288Z,17.70
2024-05-09T03:40:30.881Z,17.80
2024-05-09T03:41:01.336Z,18.10
2024-05-09T03:41:33.771Z,17.10
2024-05-09T03:42:06.146Z,15.90
2024-05-09T03:42:38.546Z,16.50
2024-05-09T03:43:10.994Z,18.00
2024-05-09T03:43:43.398Z,19.40
2024-05-09T03:44:15.868Z,19.90
2024-05-09T03:44:48.321Z,17.10
2024-05-09T03:45:20.830Z,16.10
2024-05-09T03:45:53.302Z,16.50
2024-05-09T03:46:25.731Z,16.40
2024-05-09T03:46:58.166Z,17.60
2024-05-09T03:47:30.777Z,17.80
2024-05-09T03:48:03.200Z,16.90
2024-05-09T03:48:35.581Z,17.40
2024-05-09T03:49:08.068Z,16.90
2024-05-09T03:49:40.777Z,16.20
2024-05-09T03:50:18.502Z,16.70
2024-05-09T03:50:45.358Z,16.70
2024-05-09T03:51:17.758Z,16.10
2024-05-09T03:51:50.134Z,16.80
2024-05-09T03:52:22.544Z,18.80
2024-05-09T03:52:54.973Z,18.30
2024-05-09T03:53:27.371Z,17.20
2024-05-09T03:53:59.851Z,17.70
2024-05-09T03:54:32.355Z,17.30
2024-05-09T03:55:04.772Z,17.20
2024-05-09T03:55:37.224Z,17.20
2024-05-09T03:56:09.650Z,18.40
2024-05-09T03:56:42.109Z,17.40
2024-05-09T03:57:14.451Z,15.90
2024-05-09T03:57:46.902Z,17.80
2024-05-09T03:58:19.308Z,18.90
2024-05-09T03:58:51.824Z,16.80
2024-05-09T03:59:24.297Z,17.70
2024-05-09T03:59:56.636Z,19.10
2024-05-09T04:00:35.299Z,17.10
2024-05-09T04:01:01.594Z,17.40
2024-05-09T04:01:34.003Z,16.90
2024-05-09T04:02:06.498Z,16.30
2024-05-09T04:02:38.987Z,18.40
2024-05-09T04:03:12.832Z,18.10
2024-05-09T04:03:43.900Z,18.90
2024-05-09T04:04:16.232Z,20.20
2024-05-09T04:04:48.788Z,18.60
2024-05-09T04:05:21.241Z,17.20
2024-05-09T04:05:53.687Z,17.90
2024-05-09T04:06:26.166Z,17.30
2024-05-09T04:06:58.596Z,16.40
2024-05-09T04:07:31.016Z,17.60
2024-05-09T04:08:03.517Z,17.70
2024-05-09T04:08:35.940Z,17.60
2024-05-09T04:09:08.258Z,17.50
2024-05-09T04:09:40.755Z,17.50
2024-05-09T04:10:21.077Z,17.00
2024-05-09T04:10:45.828Z,16.30
2024-05-09T04:11:18.257Z,17.40
2024-05-09T04:11:50.805Z,18.90
2024-05-09T04:12:23.199Z,18.40
2024-05-09T04:12:55.655Z,17.80
2024-05-09T04:13:28.091Z,16.40
2024-05-09T04:14:00.542Z,16.20
2024-05-09T04:14:33.058Z,17.60
2024-05-09T04:15:05.409Z,17.30
2024-05-09T04:15:37.877Z,16.90
2024-05-09T04:16:10.382Z,17.00
2024-05-09T04:16:42.856Z,17.20
2024-05-09T04:17:15.443Z,17.00
2024-05-09T04:17:47.998Z,16.50
2024-05-09T04:18:20.407Z,17.20
2024-05-09T04:18:52.930Z,17.40
2024-05-09T04:19:25.360Z,17.70
2024-05-09T04:19:57.844Z,17.90
2024-05-09T04:20:37.466Z,17.10
2024-05-09T04:21:02.875Z,16.20
2024-05-09T04:21:35.155Z,16.00
2024-05-09T04:22:07.562Z,17.20
2024-05-09T04:22:40.072Z,17.70
2024-05-09T04:23:13.384Z,18.60
2024-05-09T04:23:45.024Z,18.20
2024-05-09T04:24:17.436Z,17.40
2024-05-09T04:24:49.922Z,17.30
2024-05-09T04:25:22.399Z,16.60
2024-05-09T04:25:54.904Z,18.40
2024-05-09T04:26:27.399Z,18.50
2024-05-09T04:26:59.798Z,17.50
2024-05-09T04:27:32.216Z,16.60
2024-05-09T04:28:04.646Z,17.70
2024-05-09T04:28:37.082Z,17.40
2024-05-09T04:29:09.595Z,17.10
2024-05-09T04:29:42.126Z,17.10
2024-05-09T04:30:21.720Z,16.70
2024-05-09T04:30:47.081Z,15.70
2024-05-09T04:31:19.573Z,16.50
2024-05-09T04:31:52.117Z,17.10
2024-05-09T04:32:24.687Z,17.50
2024-05-09T04:32:57.155Z,17.30
2024-05-09T04:33:29.751Z,17.40
2024-05-09T04:34:01.977Z,15.60
2024-05-09T04:34:34.532Z,15.80
2024-05-09T04:35:06.784Z,17.30
2024-05-09T04:35:39.403Z,16.60
2024-05-09T04:36:11.649Z,17.40
2024-05-09T04:36:44.642Z,18.30
2024-05-09T04:37:16.559Z,17.10
2024-05-09T04:37:49.045Z,16.40
2024-05-09T04:38:21.604Z,17.60
2024-05-09T04:38:53.967Z,19.00
2024-05-09T04:39:26.469Z,17.50
2024-05-09T04:39:58.950Z,16.90
2024-05-09T04:40:35.000Z,16.30
2024-05-09T04:41:03.991Z,15.50
2024-05-09T04:41:36.471Z,17.20
2024-05-09T04:42:08.912Z,18.60
2024-05-09T04:42:41.432Z,18.20
2024-05-09T04:43:13.942Z,17.70
2024-05-09T04:43:46.446Z,17.80
2024-05-09T04:44:18.878Z,18.10
2024-05-09T04:44:52.042Z,17.50
2024-05-09T04:45:23.748Z,16.20
2024-05-09T04:45:56.233Z,16.30
2024-05-09T04:46:28.776Z,15.40
2024-05-09T04:47:01.267Z,16.20
2024-05-09T04:47:33.786Z,15.80
2024-05-09T04:48:06.523Z,16.00
2024-05-09T04:48:38.867Z,15.20
2024-05-09T04:49:11.300Z,14.20
2024-05-09T04:49:43.670Z,14.00
2024-05-09T04:50:24.644Z,14.80
2024-05-09T04:50:48.673Z,14.90
2024-05-09T04:51:21.126Z,14.40
2024-05-09T04:51:53.546Z,14.50
2024-05-09T04:52:25.958Z,13.00
2024-05-09T04:52:58.489Z,12.80
2024-05-09T04:53:30.879Z,12.60
2024-05-09T04:54:03.298Z,12.50
2024-05-09T04:54:36.711Z,14.60
2024-05-09T04:55:08.293Z,14.50
2024-05-09T04:55:40.935Z,13.20
2024-05-09T04:56:13.275Z,12.00
2024-05-09T04:56:45.662Z,12.40
2024-05-09T04:57:18.040Z,12.30
2024-05-09T04:57:50.457Z,11.60
2024-05-09T04:58:22.918Z,11.20
2024-05-09T04:58:55.380Z,11.80
2024-05-09T04:59:27.833Z,11.90
2024-05-09T05:00:00.298Z,10.60
2024-05-09T05:00:36.771Z,10.90
2024-05-09T05:01:05.239Z,11.00
2024-05-09T05:01:37.624Z,11.80
2024-05-09T05:02:10.060Z,12.30
2024-05-09T05:02:42.540Z,11.40
2024-05-09T05:03:16.208Z,11.90
2024-05-09T05:03:47.498Z,12.00
2024-05-09T05:04:19.968Z,11.30
2024-05-09T05:04:52.433Z,11.00
2024-05-09T05:05:24.856Z,10.70
2024-05-09T05:05:57.407Z,10.70
2024-05-09T05:06:29.746Z,10.70
2024-05-09T05:07:02.821Z,11.60
2024-05-09T05:07:34.635Z,11.50
2024-05-09T05:08:07.168Z,11.70
2024-05-09T05:08:39.682Z,11.90
2024-05-09T05:09:12.131Z,11.90
2024-05-09T05:09:44.612Z,11.20
2024-05-09T05:10:25.082Z,10.80
2024-05-09T05:10:49.771Z,11.00
2024-05-09T05:11:22.221Z,11.20
2024-05-09T05:11:54.673Z,10.50
2024-05-09T05:12:27.204Z,10.50
2024-05-09T05:12:59.545Z,11.20
2024-05-09T05:13:32.011Z,11.50
2024-05-09T05:14:04.677Z,10.80
2024-05-09T05:14:36.999Z,11.10
2024-05-09T05:15:09.470Z,11.20
2024-05-09T05:15:41.969Z,11.00
2024-05-09T05:16:14.452Z,11.00
2024-05-09T05:16:47.044Z,11.30
2024-05-09T05:17:19.516Z,11.40
2024-05-09T05:17:52.101Z,11.00
2024-05-09T05:18:24.483Z,11.40
2024-05-09T05:18:56.828Z,11.00
2024-05-09T05:19:29.467Z,11.30
2024-05-09T05:20:01.843Z,11.50
2024-05-09T05:20:34.500Z,11.70
2024-05-09T05:21:06.765Z,11.50
2024-05-09T05:21:39.199Z,10.40
2024-05-09T05:22:11.634Z,11.50
2024-05-09T05:22:44.134Z,11.50
2024-05-09T05:23:16.871Z,11.80
2024-05-09T05:23:49.064Z,11.70
2024-05-09T05:24:21.546Z,10.50
2024-05-09T05:24:54.022Z,10.60
2024-05-09T05:25:26.519Z,10.70
2024-05-09T05:25:59.001Z,10.90
2024-05-09T05:26:31.644Z,10.50
2024-05-09T05:27:03.980Z,11.70
2024-05-09T05:27:36.471Z,11.60
2024-05-09T05:28:08.958Z,10.30
2024-05-09T05:28:41.393Z,10.50
2024-05-09T05:29:14.164Z,10.60
2024-05-09T05:29:46.248Z,10.20
2024-05-09T05:30:25.038Z,10.90
2024-05-09T05:30:51.187Z,11.30
2024-05-09T05:31:23.869Z,10.30
2024-05-09T05:31:56.236Z,11.20
2024-05-09T05:32:28.929Z,12.00
2024-05-09T05:33:01.360Z,11.80
2024-05-09T05:33:33.673Z,11.20
2024-05-09T05:34:06.023Z,10.70
2024-05-09T05:34:38.417Z,11.20
2024-05-09T05:35:10.917Z,11.50
2024-05-09T05:35:43.543Z,11.40
2024-05-09T05:36:15.724Z,11.30
2024-05-09T05:36:48.148Z,10.80
2024-05-09T05:37:20.601Z,11.90
2024-05-09T05:37:53.133Z,11.80
2024-05-09T05:38:28.091Z,10.60
2024-05-09T05:38:58.014Z,12.30
2024-05-09T05:39:30.478Z,12.30
2024-05-09T05:40:03.247Z,11.40
2024-05-09T05:40:37.589Z,10.60
2024-05-09T05:41:07.858Z,10.50
2024-05-09T05:41:40.315Z,11.70
2024-05-09T05:42:12.778Z,11.20
2024-05-09T05:42:45.157Z,11.20
2024-05-09T05:43:17.590Z,11.10
2024-05-09T05:43:50.027Z,11.20
2024-05-09T05:44:22.433Z,11.70
2024-05-09T05:44:54.873Z,11.00
2024-05-09T05:45:27.365Z,10.40
2024-05-09T05:45:59.895Z,10.30
2024-05-09T05:46:32.381Z,10.50
2024-05-09T05:47:04.896Z,11.70
2024-05-09T05:47:37.431Z,11.30
2024-05-09T05:48:10.042Z,9.80
2024-05-09T05:48:42.367Z,10.40
2024-05-09T05:49:14.942Z,10.80
2024-05-09T05:49:47.102Z,9.90
2024-05-09T05:50:27.352Z,10.60
2024-05-09T05:50:52.105Z,11.10
2024-05-09T05:51:24.489Z,10.60
2024-05-09T05:51:56.958Z,10.80
2024-05-09T05:52:29.379Z,10.70
2024-05-09T05:53:01.921Z,11.20
2024-05-09T05:53:34.625Z,11.90
2024-05-09T05:54:06.731Z,11.60
2024-05-09T05:54:39.140Z,11.00
2024-05-09T05:55:11.651Z,11.30
2024-05-09T05:55:44.130Z,11.80
2024-05-09T05:56:16.619Z,10.50
2024-05-09T05:56:49.042Z,9.50
2024-05-09T05:57:21.514Z,9.90
2024-05-09T05:57:53.942Z,11.20
2024-05-09T05:58:26.371Z,10.80
2024-05-09T05:58:58.885Z,10.30
2024-05-09T05:59:31.300Z,10.30
2024-05-09T06:00:05.613Z,10.30
2024-05-09T06:00:39.122Z,10.30
2024-05-09T06:01:09.434Z,10.30
2024-05-09T06:01:41.972Z,10.40
2024-05-09T06:02:14.543Z,10.40
2024-05-09T06:02:47.137Z,10.10
2024-05-09T06:03:19.317Z,10.80
2024-05-09T06:03:51.897Z,10.80
2024-05-09T06:04:24.241Z,10.40
2024-05-09T06:04:56.782Z,10.70
2024-05-09T06:05:29.242Z,10.90
2024-05-09T06:06:01.689Z,10.60
2024-05-09T06:06:34.146Z,10.70
2024-05-09T06:07:06.681Z,10.70
2024-05-09T06:07:39.148Z,10.00
2024-05-09T06:08:11.795Z,10.00
2024-05-09T06:08:44.206Z,11.00
2024-05-09T06:09:16.473Z,11.40
2024-05-09T06:09:50.521Z,12.60
2024-05-09T06:10:25.791Z,13.50
2024-05-09T06:10:53.781Z,12.90
2024-05-09T06:11:26.288Z,13.70
2024-05-09T06:11:58.680Z,13.30
2024-05-09T06:12:31.152Z,12.60
2024-05-09T06:13:03.604Z,11.60
2024-05-09T06:13:36.090Z,11.00
2024-05-09T06:14:08.632Z,11.10
2024-05-09T06:14:41.038Z,11.10
2024-05-09T06:15:13.515Z,10.50
2024-05-09T06:15:45.973Z,10.10
2024-05-09T06:16:18.403Z,11.20
2024-05-09T06:16:50.852Z,11.20
2024-05-09T06:17:23.595Z,10.50
2024-05-09T06:17:55.972Z,10.60
2024-05-09T06:18:28.542Z,10.60
2024-05-09T06:19:00.902Z,9.60
2024-05-09T06:19:33.405Z,9.90
2024-05-09T06:20:38.602Z,11.20
2024-05-09T06:21:10.612Z,11.00
2024-05-09T06:21:43.076Z,10.20
2024-05-09T06:22:15.578Z,10.30
2024-05-09T06:22:48.114Z,9.90
2024-05-09T06:23:20.612Z,10.00
2024-05-09T06:23:53.043Z,10.30
2024-05-09T06:24:25.538Z,10.70
2024-05-09T06:24:58.009Z,10.50
2024-05-09T06:25:30.489Z,10.00
2024-05-09T06:26:03.042Z,9.30
2024-05-09T06:26:35.544Z,9.00
2024-05-09T06:27:07.928Z,9.50
2024-05-09T06:27:40.415Z,10.50
2024-05-09T06:28:12.863Z,10.20
2024-05-09T06:28:45.363Z,9.60
2024-05-09T06:29:17.795Z,10.20
2024-05-09T06:29:50.163Z,10.80
2024-05-09T06:30:30.012Z,10.60
2024-05-09T06:30:55.203Z,10.60
2024-05-09T06:31:27.700Z,9.60
2024-05-09T06:32:00.439Z,9.90
2024-05-09T06:32:32.841Z,10.90
2024-05-09T06:33:05.683Z,10.10
2024-05-09T06:33:37.849Z,10.20
2024-05-09T06:34:10.336Z,10.70
2024-05-09T06:34:42.858Z,10.40
2024-05-09T06:35:15.332Z,10.10
2024-05-09T06:35:47.725Z,10.20
2024-05-09T06:36:20.155Z,9.80
2024-05-09T06:36:52.603Z,9.50
2024-05-09T06:37:25.137Z,9.70
2024-05-09T06:37:57.673Z,9.90
2024-05-09T06:38:30.208Z,10.00
2024-05-09T06:39:02.578Z,9.10
2024-05-09T06:39:35.053Z,9.20
2024-05-09T06:40:09.878Z,10.10
2024-05-09T06:40:41.721Z,10.20
2024-05-09T06:41:12.483Z,9.50
2024-05-09T06:41:44.949Z,8.60
2024-05-09T06:42:17.319Z,9.30
2024-05-09T06:42:49.759Z,10.30
2024-05-09T06:43:22.184Z,9.50
2024-05-09T06:43:54.747Z,9.60
2024-05-09T06:44:27.365Z,10.20
2024-05-09T06:44:59.736Z,10.60
2024-05-09T06:45:32.270Z,9.40
2024-05-09T06:46:04.703Z,8.30
2024-05-09T06:46:37.238Z,8.40
2024-05-09T06:47:09.926Z,9.30
2024-05-09T06:47:42.325Z,8.80
2024-05-09T06:48:14.935Z,8.40
2024-05-09T06:48:47.572Z,8.70
2024-05-09T06:49:19.888Z,10.10
2024-05-09T06:49:52.294Z,10.50
2024-05-09T06:50:28.246Z,9.80
2024-05-09T06:50:57.283Z,9.50
2024-05-09T06:51:29.773Z,8.90
2024-05-09T06:52:02.273Z,8.70
2024-05-09T06:52:34.699Z,9.50
2024-05-09T06:53:07.485Z,9.40
2024-05-09T06:53:39.807Z,8.70
2024-05-09T06:54:12.215Z,8.10
2024-05-09T06:54:44.746Z,8.40
2024-05-09T06:55:17.260Z,8.70
2024-05-09T06:55:49.949Z,9.00
2024-05-09T06:56:22.363Z,9.20
2024-05-09T06:56:54.729Z,9.10
2024-05-09T06:57:27.230Z,8.70
2024-05-09T06:57:59.812Z,8.50
2024-05-09T06:58:32.238Z,8.50
2024-05-09T06:59:04.685Z,7.90
2024-05-09T06:59:37.208Z,7.70
2024-05-09T07:00:15.484Z,8.30
2024-05-09T07:00:42.820Z,8.90